KRKS/RKS METAR and TAF weather

Enter ICAO airport designator
Station Type Date Time Source
KRKS METAR 2019/02/20 16:54 UTC NOAA

KRKS 201654Z AUTO 25018KT 4SM HZ BKN037 OVC047 M12/M14 A2960 RMK AO2 SNE00 SLP105 P0000 T11171144


Station Type Date Time Source
KRKS Decoded METAR 2019/02/20 16:54 UTC NOAA

ROCK SPRINGS-SWEETWATER CO, WY, United States (KRKS) 41-36N 109-03W
Feb 20, 2019 - 11:54 AM EST / 2019.02.20 1654 UTC
Wind: from the WSW (250 degrees) at 21 MPH (18 KT):0
Visibility: 4 mile(s):0
Sky conditions: overcast
Weather: haze
Precipitation last hour: A trace
Temperature: 10.9 F (-11.7 C)
Windchill: -7 F (-22 C):2
Dew Point: 6.1 F (-14.4 C)
Relative Humidity: 80%
Pressure (altimeter): 29.6 in. Hg (1002 hPa)
ob: KRKS 201654Z AUTO 25018KT 4SM HZ BKN037 OVC047 M12/M14 A2960 RMK AO2 SNE00 SLP105 P0000 T11171144
cycle: 17

Station Type Date Time Source
KRKS TAF 2019/02/20 17:03 UTC NOAA

TAF
AMD KRKS 201701Z 2017/2112 24016G22KT 3SM -SN OVC035
FM201900 24013G19KT P6SM VCSH SCT030 OVC040
FM210000 21010KT P6SM SCT030 BKN045
FM210900 10007KT P6SM BKN030


Example: see airport list